createdAt,value
2019-04-12T00:00:50.187Z,6.85
2019-04-12T00:03:19.202Z,5.60
2019-04-12T00:05:48.510Z,6.12
2019-04-12T00:08:17.594Z,5.95
2019-04-12T00:10:46.479Z,6.60
2019-04-12T00:13:15.279Z,6.95
2019-04-12T00:15:44.344Z,6.45
2019-04-12T00:18:14.796Z,5.95
2019-04-12T00:20:44.620Z,6.33
2019-04-12T00:23:16.122Z,6.37
2019-04-12T00:25:47.801Z,5.50
2019-04-12T00:28:19.089Z,5.15
2019-04-12T00:30:51.127Z,5.85
2019-04-12T00:33:22.063Z,6.42
2019-04-12T00:35:49.106Z,5.83
2019-04-12T00:38:18.773Z,6.47
2019-04-12T00:40:47.745Z,5.60
2019-04-12T00:43:16.677Z,6.20
2019-04-12T00:45:45.521Z,5.47
2019-04-12T00:48:14.349Z,5.65
2019-04-12T00:50:43.234Z,5.80
2019-04-12T00:53:13.546Z,6.25
2019-04-12T00:55:43.562Z,5.80
2019-04-12T00:58:15.911Z,6.40
2019-04-12T01:01:19.340Z,6.15
2019-04-12T01:03:52.345Z,5.85
2019-04-12T01:06:21.265Z,5.67
2019-04-12T01:08:52.018Z,5.75
2019-04-12T01:11:22.025Z,5.83
2019-04-12T01:13:52.097Z,6.60
2019-04-12T01:16:20.919Z,5.22
2019-04-12T01:18:49.969Z,6.00
2019-04-12T01:21:19.441Z,6.08
2019-04-12T01:23:48.393Z,6.20
2019-04-12T01:26:17.285Z,6.30
2019-04-12T01:28:48.422Z,6.37
2019-04-12T01:31:16.770Z,5.90
2019-04-12T01:33:45.641Z,7.40
2019-04-12T01:36:14.532Z,7.37
2019-04-12T01:38:43.390Z,7.30
2019-04-12T01:41:12.263Z,6.22
2019-04-12T01:43:41.133Z,6.58
2019-04-12T01:46:09.936Z,6.58
2019-04-12T01:48:38.727Z,6.53
2019-04-12T01:51:07.653Z,6.60
2019-04-12T01:53:36.411Z,6.37
2019-04-12T01:56:05.314Z,6.00
2019-04-12T01:58:34.397Z,5.85
2019-04-12T02:01:03.324Z,6.47
2019-04-12T02:03:32.251Z,5.58
2019-04-12T02:06:01.129Z,6.30
2019-04-12T02:08:29.949Z,5.53
2019-04-12T02:10:58.881Z,6.47
2019-04-12T02:13:27.900Z,6.10
2019-04-12T02:15:56.839Z,6.53
2019-04-12T02:18:25.641Z,5.95
2019-04-12T02:20:54.768Z,6.72
2019-04-12T02:23:23.605Z,5.80
2019-04-12T02:25:52.575Z,6.55
2019-04-12T02:28:21.495Z,5.70
2019-04-12T02:30:54.351Z,5.60
2019-04-12T02:33:23.502Z,6.05
2019-04-12T02:35:52.742Z,6.12
2019-04-12T02:38:21.522Z,6.42
2019-04-12T02:40:51.034Z,5.22
2019-04-12T02:43:23.112Z,5.40
2019-04-12T02:45:53.365Z,5.22
2019-04-12T02:48:39.149Z,4.70
2019-04-12T02:51:21.771Z,5.22
2019-04-12T02:54:09.553Z,4.90
2019-04-12T02:57:04.811Z,4.42
2019-04-12T02:59:35.124Z,5.30
2019-04-12T03:02:06.982Z,4.95
2019-04-12T03:04:36.218Z,5.78
2019-04-12T03:07:05.160Z,4.53
2019-04-12T03:09:37.066Z,5.03
2019-04-12T03:12:09.017Z,5.22
2019-04-12T03:14:38.994Z,5.87
2019-04-12T03:17:08.789Z,5.42
2019-04-12T03:19:37.835Z,5.85
2019-04-12T03:22:07.248Z,4.80
2019-04-12T03:24:36.337Z,5.70
2019-04-12T03:27:05.619Z,4.80
2019-04-12T03:29:35.266Z,5.17
2019-04-12T03:32:05.078Z,6.03
2019-04-12T03:34:34.119Z,5.78
2019-04-12T03:37:03.287Z,5.70
2019-04-12T03:39:32.550Z,4.65
2019-04-12T03:42:01.699Z,5.35
2019-04-12T03:44:31.027Z,6.17
2019-04-12T03:47:00.468Z,6.17
2019-04-12T03:49:29.566Z,6.60
2019-04-12T03:51:58.705Z,5.85
2019-04-12T03:54:27.676Z,5.35
2019-04-12T03:56:56.610Z,6.15
2019-04-12T03:59:25.884Z,6.62
2019-04-12T04:02:01.978Z,5.50
2019-04-12T04:04:31.272Z,6.70
2019-04-12T04:07:00.163Z,6.97
2019-04-12T04:09:31.151Z,5.42
2019-04-12T04:12:01.747Z,6.10
2019-04-12T04:14:31.285Z,5.67
2019-04-12T04:17:18.107Z,5.70
2019-04-12T04:20:01.219Z,5.70
2019-04-12T04:22:31.729Z,4.70
2019-04-12T04:25:02.140Z,6.10
2019-04-12T04:27:48.398Z,4.60
2019-04-12T04:30:41.458Z,5.55
2019-04-12T04:33:10.738Z,5.92
2019-04-12T04:35:40.256Z,5.67
2019-04-12T04:38:19.765Z,5.60
2019-04-12T04:40:58.529Z,5.75
2019-04-12T04:43:27.601Z,5.17
2019-04-12T04:46:00.364Z,4.90
2019-04-12T04:48:29.741Z,5.65
2019-04-12T04:50:59.187Z,4.80
2019-04-12T04:53:30.131Z,4.83
2019-04-12T04:55:59.365Z,4.72
2019-04-12T04:58:28.539Z,4.75
2019-04-12T05:00:57.792Z,5.60
2019-04-12T05:03:26.980Z,5.42
2019-04-12T05:05:56.150Z,7.15
2019-04-12T05:08:25.216Z,5.15
2019-04-12T05:10:54.250Z,5.97
2019-04-12T05:13:23.334Z,5.20
2019-04-12T05:15:52.905Z,5.95
2019-04-12T05:18:22.273Z,6.08
2019-04-12T05:20:51.334Z,6.22
2019-04-12T05:23:20.499Z,5.85
2019-04-12T05:25:49.537Z,5.33
2019-04-12T05:28:18.575Z,5.70
2019-04-12T05:30:47.809Z,6.15
2019-04-12T05:33:18.678Z,6.15
2019-04-12T05:35:48.110Z,5.58
2019-04-12T05:38:17.091Z,5.70
2019-04-12T05:40:46.058Z,5.87
2019-04-12T05:43:14.964Z,6.42
2019-04-12T05:45:49.527Z,5.53
2019-04-12T05:48:38.639Z,5.62
2019-04-12T05:51:07.589Z,5.22
2019-04-12T05:53:36.416Z,6.65
2019-04-12T05:56:05.288Z,5.15
2019-04-12T05:58:45.804Z,5.65
2019-04-12T06:01:48.838Z,4.75
2019-04-12T06:04:17.802Z,5.28
2019-04-12T06:06:46.579Z,5.30
2019-04-12T06:09:15.498Z,4.60
2019-04-12T06:11:44.468Z,5.37
2019-04-12T06:14:13.537Z,4.97
2019-04-12T06:16:44.001Z,5.20
2019-04-12T06:19:13.471Z,4.47
2019-04-12T06:22:11.148Z,4.90
2019-04-12T06:24:40.669Z,4.60
2019-04-12T06:27:17.635Z,5.72
2019-04-12T06:29:46.473Z,5.15
2019-04-12T06:32:15.358Z,4.10
2019-04-12T06:34:44.345Z,4.85
2019-04-12T06:37:13.279Z,4.17
2019-04-12T06:39:42.105Z,4.70
2019-04-12T06:42:11.083Z,4.50
2019-04-12T06:44:39.905Z,5.10
2019-04-12T06:47:08.677Z,4.62
2019-04-12T06:49:37.928Z,4.25
2019-04-12T06:52:06.814Z,4.85
2019-04-12T06:54:35.725Z,4.10
2019-04-12T06:57:21.929Z,4.50
2019-04-12T07:00:01.986Z,4.58
2019-04-12T07:02:31.655Z,3.98
2019-04-12T07:05:00.545Z,4.80
2019-04-12T07:07:29.451Z,4.35
2019-04-12T07:09:58.326Z,4.00
2019-04-12T07:12:27.181Z,4.10
2019-04-12T07:14:55.937Z,4.05
2019-04-12T07:17:24.798Z,4.37
2019-04-12T07:19:53.551Z,4.37
2019-04-12T07:22:22.400Z,3.47
2019-04-12T07:24:51.217Z,4.30
2019-04-12T07:27:20.263Z,4.28
2019-04-12T07:29:49.230Z,3.70
2019-04-12T07:32:18.102Z,4.10
2019-04-12T07:34:49.732Z,4.15
2019-04-12T07:37:18.551Z,4.30
2019-04-12T07:39:47.511Z,4.03
2019-04-12T07:42:16.466Z,3.55
2019-04-12T07:44:45.799Z,3.77
2019-04-12T07:47:15.320Z,3.75
2019-04-12T07:49:44.310Z,4.28
2019-04-12T07:52:24.675Z,3.98
2019-04-12T07:55:05.616Z,4.08
2019-04-12T07:57:47.598Z,4.17
2019-04-12T08:00:34.266Z,4.12
2019-04-12T08:03:21.089Z,3.25
2019-04-12T08:05:53.823Z,3.33
2019-04-12T08:08:22.638Z,3.52
2019-04-12T08:10:51.496Z,3.85
2019-04-12T08:13:20.442Z,3.62
2019-04-12T08:15:49.381Z,4.55
2019-04-12T08:18:18.307Z,3.92
2019-04-12T08:20:47.186Z,4.33
2019-04-12T08:23:16.514Z,3.67
2019-04-12T08:25:45.353Z,3.90
2019-04-12T08:28:14.124Z,4.37
2019-04-12T08:30:42.869Z,3.62
2019-04-12T08:33:11.788Z,3.92
2019-04-12T08:35:40.733Z,3.80
2019-04-12T08:38:09.662Z,3.83
2019-04-12T08:40:38.617Z,4.42
2019-04-12T08:43:26.733Z,3.90
2019-04-12T08:45:55.746Z,3.87
2019-04-12T08:48:24.685Z,3.75
2019-04-12T08:50:53.779Z,4.00
2019-04-12T08:53:22.696Z,3.55
2019-04-12T08:55:51.582Z,4.08
2019-04-12T08:58:20.595Z,4.20
2019-04-12T09:00:49.546Z,4.30
2019-04-12T09:03:18.793Z,4.40
2019-04-12T09:05:47.895Z,4.87
2019-04-12T09:08:16.743Z,4.80
2019-04-12T09:10:45.710Z,5.17
2019-04-12T09:13:14.728Z,4.12
2019-04-12T09:15:44.074Z,4.10
2019-04-12T09:18:14.101Z,4.00
2019-04-12T09:20:48.806Z,4.70
2019-04-12T09:23:27.312Z,4.03
2019-04-12T09:25:59.752Z,4.08
2019-04-12T09:28:28.676Z,3.60
2019-04-12T09:30:57.666Z,4.87
2019-04-12T09:33:26.748Z,3.60
2019-04-12T09:35:55.848Z,3.92
2019-04-12T09:38:24.673Z,3.85
2019-04-12T09:40:56.252Z,3.35
2019-04-12T09:43:24.408Z,3.72
2019-04-12T09:45:53.226Z,3.42
2019-04-12T09:48:21.985Z,3.10
2019-04-12T09:50:50.825Z,3.12
2019-04-12T09:53:19.953Z,4.17
2019-04-12T09:55:48.980Z,3.35
2019-04-12T09:58:17.844Z,3.65
2019-04-12T10:00:46.729Z,4.12
2019-04-12T10:03:15.608Z,3.58
2019-04-12T10:05:45.089Z,3.87
2019-04-12T10:08:14.168Z,3.12
2019-04-12T10:10:42.976Z,3.33
2019-04-12T10:13:11.876Z,3.02
2019-04-12T10:15:40.767Z,3.10
2019-04-12T10:18:09.564Z,2.98
2019-04-12T10:20:38.372Z,3.70
2019-04-12T10:23:07.303Z,3.62
2019-04-12T10:25:36.181Z,3.65
2019-04-12T10:28:04.956Z,5.17
2019-04-12T10:30:33.988Z,3.52
2019-04-12T10:33:02.756Z,4.25
2019-04-12T10:35:31.801Z,3.75
2019-04-12T10:38:00.665Z,3.30
2019-04-12T10:40:30.011Z,3.58
2019-04-12T10:43:00.696Z,3.37
2019-04-12T10:45:48.125Z,3.40
2019-04-12T10:48:27.813Z,3.45
2019-04-12T10:51:14.744Z,3.42
2019-04-12T10:53:56.934Z,3.98
2019-04-12T10:56:25.928Z,3.60
2019-04-12T10:59:02.704Z,3.87
2019-04-12T11:01:26.869Z,3.67
2019-04-12T11:03:55.869Z,3.70
2019-04-12T11:06:30.399Z,3.70
2019-04-12T11:08:57.334Z,4.20
2019-04-12T11:11:26.200Z,3.75
2019-04-12T11:13:55.090Z,3.95
2019-04-12T11:16:26.858Z,3.50
2019-04-12T11:18:54.442Z,3.65
2019-04-12T11:21:23.254Z,4.35
2019-04-12T11:23:52.036Z,4.25
2019-04-12T11:26:20.906Z,4.03
2019-04-12T11:28:49.838Z,4.15
2019-04-12T11:31:18.719Z,3.72
2019-04-12T11:33:47.506Z,4.12
2019-04-12T11:36:16.429Z,3.72
2019-04-12T11:38:45.188Z,4.03
2019-04-12T11:41:13.993Z,4.10
2019-04-12T11:43:42.778Z,4.00
2019-04-12T11:46:11.550Z,4.90
2019-04-12T11:48:41.645Z,4.40
2019-04-12T11:51:10.407Z,3.90
2019-04-12T11:53:39.339Z,4.25
2019-04-12T11:56:08.214Z,4.05
2019-04-12T11:58:48.048Z,3.77
2019-04-12T12:01:26.727Z,4.45
2019-04-12T12:04:09.746Z,4.12
2019-04-12T12:06:57.704Z,3.37
2019-04-12T12:09:35.773Z,3.50
2019-04-12T12:12:15.579Z,3.58
2019-04-12T12:14:58.865Z,4.20
2019-04-12T12:17:33.729Z,4.58
2019-04-12T12:20:02.513Z,4.20
2019-04-12T12:22:31.345Z,3.30
2019-04-12T12:25:00.213Z,3.87
2019-04-12T12:27:28.987Z,4.17
2019-04-12T12:29:57.815Z,4.45
2019-04-12T12:32:26.641Z,4.10
2019-04-12T12:34:55.402Z,4.42
2019-04-12T12:37:24.193Z,3.42
2019-04-12T12:39:53.194Z,3.65
2019-04-12T12:42:22.186Z,4.15
2019-04-12T12:44:50.984Z,3.40
2019-04-12T12:47:19.746Z,3.50
2019-04-12T12:49:48.571Z,3.30
2019-04-12T12:52:17.353Z,3.77
2019-04-12T12:54:46.241Z,3.55
2019-04-12T12:57:15.098Z,4.30
2019-04-12T12:59:53.993Z,3.92
2019-04-12T13:02:14.587Z,4.60
2019-04-12T13:04:43.475Z,3.55
2019-04-12T13:07:12.307Z,3.52
2019-04-12T13:09:41.194Z,3.72
2019-04-12T13:12:10.057Z,3.45
2019-04-12T13:14:38.912Z,4.00
2019-04-12T13:17:08.052Z,3.62
2019-04-12T13:19:36.935Z,3.47
2019-04-12T13:22:05.863Z,3.80
2019-04-12T13:24:34.736Z,3.87
2019-04-12T13:27:03.746Z,3.92
2019-04-12T13:29:32.623Z,4.20
2019-04-12T13:32:23.686Z,3.65
2019-04-12T13:35:12.118Z,4.10
2019-04-12T13:37:56.458Z,3.60
2019-04-12T13:40:27.865Z,3.42
2019-04-12T13:43:02.484Z,3.55
2019-04-12T13:45:31.758Z,3.20
2019-04-12T13:48:00.529Z,3.37
2019-04-12T13:50:29.397Z,3.37
2019-04-12T13:52:58.413Z,3.22
2019-04-12T13:55:27.357Z,2.75
2019-04-12T13:57:56.287Z,3.98
2019-04-12T14:00:25.693Z,3.50
2019-04-12T14:02:54.957Z,3.15
2019-04-12T14:05:23.963Z,3.50
2019-04-12T14:07:53.402Z,3.70
2019-04-12T14:10:22.726Z,3.72
2019-04-12T14:13:01.983Z,2.95
2019-04-12T14:15:22.788Z,3.22
2019-04-12T14:17:51.681Z,2.92
2019-04-12T14:20:20.550Z,3.80
2019-04-12T14:22:49.336Z,3.37
2019-04-12T14:25:18.221Z,3.90
2019-04-12T14:27:47.194Z,3.22
2019-04-12T14:30:33.817Z,3.45
2019-04-12T14:33:21.821Z,3.65
2019-04-12T14:35:55.904Z,3.52
2019-04-12T14:38:24.790Z,2.95
2019-04-12T14:40:53.605Z,3.00
2019-04-12T14:43:27.286Z,3.45
2019-04-12T14:46:18.354Z,3.40
2019-04-12T14:48:47.176Z,3.20
2019-04-12T14:51:16.114Z,3.67
2019-04-12T14:53:44.971Z,3.70
2019-04-12T14:56:13.801Z,3.62
2019-04-12T14:58:42.665Z,3.10
2019-04-12T15:01:11.517Z,4.20
2019-04-12T15:03:40.307Z,3.85
2019-04-12T15:06:09.117Z,3.45
2019-04-12T15:08:37.891Z,3.45
2019-04-12T15:11:06.822Z,3.33
2019-04-12T15:13:35.734Z,3.45
2019-04-12T15:16:04.700Z,3.50
2019-04-12T15:18:33.486Z,3.50
2019-04-12T15:21:02.485Z,3.55
2019-04-12T15:23:31.346Z,3.10
2019-04-12T15:26:00.285Z,3.40
2019-04-12T15:28:29.142Z,3.17
2019-04-12T15:30:58.882Z,3.22
2019-04-12T15:33:28.053Z,4.20
2019-04-12T15:35:57.179Z,3.90
2019-04-12T15:38:26.119Z,4.15
2019-04-12T15:40:55.376Z,3.62
2019-04-12T15:43:24.295Z,3.83
2019-04-12T15:45:53.170Z,4.05
2019-04-12T15:48:22.278Z,3.50
2019-04-12T15:50:51.093Z,3.15
2019-04-12T15:53:20.074Z,3.10
2019-04-12T15:55:49.185Z,3.05
2019-04-12T15:58:18.057Z,3.90
2019-04-12T16:01:11.707Z,3.75
2019-04-12T16:03:33.967Z,2.60
2019-04-12T16:06:03.497Z,3.30
2019-04-12T16:08:40.661Z,3.83
2019-04-12T16:11:12.569Z,3.15
2019-04-12T16:14:05.285Z,2.70
2019-04-12T16:17:00.995Z,3.10
2019-04-12T16:19:30.803Z,2.65
2019-04-12T16:22:00.918Z,3.40
2019-04-12T16:24:29.813Z,3.75
2019-04-12T16:26:59.001Z,3.62
2019-04-12T16:29:45.909Z,3.30
2019-04-12T16:32:25.952Z,3.70
2019-04-12T16:35:12.509Z,3.70
2019-04-12T16:37:57.480Z,3.20
2019-04-12T16:40:26.440Z,3.30
2019-04-12T16:42:55.523Z,3.37
2019-04-12T16:45:24.722Z,3.33
2019-04-12T16:47:57.568Z,4.00
2019-04-12T16:50:31.555Z,3.05
2019-04-12T16:53:00.615Z,4.15
2019-04-12T16:55:29.807Z,4.05
2019-04-12T16:57:59.234Z,3.22
2019-04-12T17:00:46.484Z,3.62
2019-04-12T17:03:15.730Z,3.27
2019-04-12T17:09:25.859Z,3.87
2019-04-12T17:11:55.064Z,3.45
2019-04-12T17:14:24.000Z,3.83
2019-04-12T17:16:54.722Z,3.65
2019-04-12T17:19:23.650Z,4.03
2019-04-12T17:21:52.687Z,3.35
2019-04-12T17:24:21.710Z,3.55
2019-04-12T17:26:50.647Z,3.50
2019-04-12T17:29:19.615Z,4.05
2019-04-12T17:31:49.486Z,3.33
2019-04-12T17:34:18.834Z,3.70
2019-04-12T17:36:47.804Z,3.20
2019-04-12T17:39:16.829Z,3.10
2019-04-12T17:41:45.826Z,4.05
2019-04-12T17:44:14.915Z,4.85
2019-04-12T17:46:43.838Z,3.77
2019-04-12T17:49:25.267Z,4.10
2019-04-12T17:51:58.587Z,3.50
2019-04-12T17:54:43.660Z,3.40
2019-04-12T17:57:13.442Z,3.62
2019-04-12T17:59:42.460Z,3.35
2019-04-12T18:02:30.491Z,4.20
2019-04-12T18:05:04.359Z,3.40
2019-04-12T18:07:33.602Z,3.85
2019-04-12T18:10:02.806Z,3.92
2019-04-12T18:12:31.734Z,3.17
2019-04-12T18:15:00.925Z,3.40
2019-04-12T18:17:30.131Z,3.72
2019-04-12T18:19:59.247Z,4.17
2019-04-12T18:22:28.473Z,3.50
2019-04-12T18:25:01.461Z,3.00
2019-04-12T18:27:30.278Z,3.30
2019-04-12T18:29:59.037Z,3.92
2019-04-12T18:32:27.885Z,4.17
2019-04-12T18:34:56.788Z,3.20
2019-04-12T18:37:25.950Z,3.52
2019-04-12T18:39:54.918Z,3.98
2019-04-12T18:42:23.719Z,3.22
2019-04-12T18:44:52.911Z,4.60
2019-04-12T18:47:21.911Z,3.35
2019-04-12T18:49:50.852Z,4.30
2019-04-12T18:52:19.699Z,3.62
2019-04-12T18:54:48.718Z,3.20
2019-04-12T18:57:18.164Z,3.60
2019-04-12T18:59:47.288Z,3.35
2019-04-12T19:02:26.588Z,4.30
2019-04-12T19:05:33.308Z,4.72
2019-04-12T19:08:02.517Z,3.60
2019-04-12T19:10:31.497Z,4.30
2019-04-12T19:13:00.631Z,4.50
2019-04-12T19:15:29.609Z,4.60
2019-04-12T19:17:58.507Z,3.75
2019-04-12T19:20:27.453Z,4.05
2019-04-12T19:22:57.019Z,4.20
2019-04-12T19:25:26.170Z,4.47
2019-04-12T19:27:55.117Z,4.85
2019-04-12T19:30:27.195Z,4.22
2019-04-12T19:33:09.688Z,4.28
2019-04-12T19:35:56.190Z,5.22
2019-04-12T19:38:43.053Z,4.40
2019-04-12T19:41:13.596Z,4.62
2019-04-12T19:43:43.614Z,4.85
2019-04-12T19:46:12.622Z,4.85
2019-04-12T19:48:42.156Z,5.45
2019-04-12T19:51:10.986Z,4.78
2019-04-12T19:53:39.878Z,6.10
2019-04-12T19:56:09.209Z,4.92
2019-04-12T19:58:38.412Z,5.17
2019-04-12T20:01:07.445Z,4.37
2019-04-12T20:03:36.770Z,4.50
2019-04-12T20:06:06.046Z,4.53
2019-04-12T20:08:35.123Z,5.40
2019-04-12T20:11:04.253Z,4.30
2019-04-12T20:13:33.289Z,4.20
2019-04-12T20:16:02.487Z,3.67
2019-04-12T20:18:37.908Z,3.60
2019-04-12T20:21:08.533Z,3.90
2019-04-12T20:23:37.443Z,4.30
2019-04-12T20:26:06.515Z,4.40
2019-04-12T20:28:35.687Z,4.90
2019-04-12T20:31:04.875Z,4.62
2019-04-12T20:33:33.893Z,4.45
2019-04-12T20:36:02.885Z,4.10
2019-04-12T20:38:32.006Z,4.75
2019-04-12T20:41:01.032Z,4.30
2019-04-12T20:43:29.947Z,3.95
2019-04-12T20:45:59.114Z,4.78
2019-04-12T20:48:28.200Z,3.83
2019-04-12T20:50:57.423Z,4.67
2019-04-12T20:53:26.478Z,5.08
2019-04-12T20:55:55.580Z,4.33
2019-04-12T20:58:24.906Z,4.60
2019-04-12T21:00:53.948Z,5.62
2019-04-12T21:03:23.291Z,4.35
2019-04-12T21:05:52.750Z,4.28
2019-04-12T21:08:24.298Z,4.67
2019-04-12T21:10:52.437Z,4.72
2019-04-12T21:13:29.831Z,4.67
2019-04-12T21:15:59.249Z,5.30
2019-04-12T21:18:30.357Z,5.03
2019-04-12T21:20:59.949Z,5.30
2019-04-12T21:23:28.967Z,7.53
2019-04-12T21:25:59.878Z,5.55
2019-04-12T21:28:28.847Z,5.53
2019-04-12T21:30:58.003Z,4.97
2019-04-12T21:33:28.885Z,5.15
2019-04-12T21:35:57.850Z,5.00
2019-04-12T21:38:26.783Z,5.85
2019-04-12T21:40:55.998Z,4.17
2019-04-12T21:43:25.201Z,4.95
2019-04-12T21:45:54.102Z,4.72
2019-04-12T21:48:22.978Z,5.05
2019-04-12T21:50:52.163Z,4.55
2019-04-12T21:53:21.310Z,4.70
2019-04-12T21:55:50.281Z,5.20
2019-04-12T21:58:19.374Z,5.15
2019-04-12T22:00:58.006Z,5.40
2019-04-12T22:03:27.583Z,4.95
2019-04-12T22:05:56.557Z,4.17
2019-04-12T22:08:25.575Z,5.47
2019-04-12T22:10:54.679Z,5.75
2019-04-12T22:13:23.841Z,4.95
2019-04-12T22:15:53.040Z,4.60
2019-04-12T22:18:22.163Z,5.83
2019-04-12T22:20:52.624Z,5.47
2019-04-12T22:23:21.794Z,5.35
2019-04-12T22:25:53.332Z,4.60
2019-04-12T22:28:22.416Z,4.42
2019-04-12T22:30:53.122Z,4.72
2019-04-12T22:33:22.225Z,4.70
2019-04-12T22:35:51.206Z,4.08
2019-04-12T22:38:20.067Z,4.55
2019-04-12T22:43:37.025Z,4.40
2019-04-12T22:46:05.997Z,5.20
2019-04-12T22:48:34.967Z,4.60
2019-04-12T22:51:04.156Z,4.85
2019-04-12T22:53:33.114Z,4.45
2019-04-12T22:56:02.085Z,5.33
2019-04-12T22:58:31.227Z,4.67
2019-04-12T23:01:00.456Z,4.30
2019-04-12T23:03:29.543Z,5.00
2019-04-12T23:05:58.603Z,4.65
2019-04-12T23:08:27.725Z,5.28
2019-04-12T23:10:56.817Z,5.35
2019-04-12T23:13:25.805Z,5.40
2019-04-12T23:15:54.767Z,5.97
2019-04-12T23:18:23.663Z,5.20
2019-04-12T23:20:56.027Z,7.50
2019-04-12T23:23:24.895Z,7.37
2019-04-12T23:25:53.772Z,7.22
2019-04-12T23:28:22.793Z,6.53
2019-04-12T23:31:07.407Z,6.05
2019-04-12T23:33:58.374Z,6.95
2019-04-12T23:36:29.132Z,6.47
2019-04-12T23:38:57.938Z,6.83
2019-04-12T23:41:26.743Z,6.90
2019-04-12T23:43:55.528Z,7.37
2019-04-12T23:46:24.441Z,7.60
2019-04-12T23:48:53.481Z,7.65
2019-04-12T23:51:22.734Z,7.67
2019-04-12T23:53:51.708Z,7.17
2019-04-12T23:56:20.517Z,7.75
2019-04-12T23:58:50.888Z,6.85
